createdAt,value
2022-12-31T00:02:18.493Z,98056.31
2022-12-31T00:04:45.096Z,98066.94
2022-12-31T00:07:11.611Z,98055.97
2022-12-31T00:09:38.153Z,98053.66
2022-12-31T00:12:04.683Z,98057.34
2022-12-31T00:14:31.248Z,98062.66
2022-12-31T00:16:57.791Z,98069.84
2022-12-31T00:19:24.387Z,98058.84
2022-12-31T00:21:50.889Z,98073.81
2022-12-31T00:24:17.935Z,98070.06
2022-12-31T00:26:44.513Z,98065.41
2022-12-31T00:29:11.090Z,98066.06
2022-12-31T00:31:38.215Z,98067.16
2022-12-31T00:34:04.910Z,98075.03
2022-12-31T00:36:35.182Z,98076.59
2022-12-31T00:39:02.743Z,98080.28
2022-12-31T00:41:29.382Z,98086.91
2022-12-31T00:44:01.541Z,98084.06
2022-12-31T00:46:28.116Z,98087.09
2022-12-31T00:48:54.863Z,98087.47
2022-12-31T00:51:22.193Z,98090.59
2022-12-31T00:53:48.716Z,98086.75
2022-12-31T00:56:16.062Z,98097.03
2022-12-31T00:58:42.620Z,98100.38
2022-12-31T01:01:12.993Z,98103.88
2022-12-31T01:03:39.654Z,98112.13
2022-12-31T01:06:06.525Z,98117.94
2022-12-31T01:08:33.263Z,98116.25
2022-12-31T01:11:19.167Z,98123.81
2022-12-31T01:13:50.027Z,98128.75
2022-12-31T01:16:16.932Z,98123.91
2022-12-31T01:18:43.461Z,98133.06
2022-12-31T01:21:10.875Z,98139.00
2022-12-31T01:23:39.554Z,98144.13
2022-12-31T01:26:06.912Z,98148.88
2022-12-31T01:28:33.657Z,98153.22
2022-12-31T01:31:03.229Z,98158.84
2022-12-31T01:33:29.752Z,98167.75
2022-12-31T01:35:56.252Z,98167.44
2022-12-31T01:38:22.748Z,98165.50
2022-12-31T01:40:49.254Z,98169.47
2022-12-31T01:43:17.575Z,98171.00
2022-12-31T01:45:44.893Z,98172.13
2022-12-31T01:48:12.266Z,98179.16
2022-12-31T01:50:39.963Z,98176.25
2022-12-31T01:53:06.820Z,98164.72
2022-12-31T01:55:34.022Z,98175.41
2022-12-31T01:58:07.696Z,98169.53
2022-12-31T02:00:34.228Z,98176.28
2022-12-31T02:03:00.889Z,98177.88
2022-12-31T02:05:29.737Z,98185.03
2022-12-31T02:07:56.248Z,98185.84
2022-12-31T02:10:22.793Z,98185.72
2022-12-31T02:12:49.294Z,98191.84
2022-12-31T02:15:15.863Z,98193.28
2022-12-31T02:17:45.455Z,98181.00
2022-12-31T02:20:32.721Z,98186.53
2022-12-31T02:23:05.024Z,98190.56
2022-12-31T02:25:31.593Z,98196.88
2022-12-31T02:28:04.442Z,98192.94
2022-12-31T02:30:31.371Z,98200.78
2022-12-31T02:33:06.568Z,98200.25
2022-12-31T02:35:56.358Z,98193.84
2022-12-31T02:38:24.108Z,98200.91
2022-12-31T02:40:50.873Z,98194.97
2022-12-31T02:43:17.438Z,98199.31
2022-12-31T02:45:45.348Z,98192.97
2022-12-31T02:48:17.546Z,98188.38
2022-12-31T02:50:55.834Z,98186.81
2022-12-31T02:53:30.779Z,98177.19
2022-12-31T02:56:03.334Z,98176.16
2022-12-31T02:58:51.568Z,98171.59
2022-12-31T03:01:39.010Z,98181.22
2022-12-31T03:04:24.377Z,98174.66
2022-12-31T03:06:51.477Z,98180.75
2022-12-31T03:09:18.001Z,98180.19
2022-12-31T03:12:02.969Z,98183.22
2022-12-31T03:14:29.497Z,98182.38
2022-12-31T03:16:56.022Z,98181.56
2022-12-31T03:19:41.317Z,98182.94
2022-12-31T03:22:26.678Z,98194.59
2022-12-31T03:25:19.741Z,98184.88
2022-12-31T03:27:47.237Z,98182.88
2022-12-31T03:30:14.629Z,98181.84
2022-12-31T03:32:41.488Z,98187.31
2022-12-31T03:35:08.404Z,98190.84
2022-12-31T03:37:34.954Z,98196.88
2022-12-31T03:40:01.606Z,98202.34
2022-12-31T03:42:28.175Z,98209.13
2022-12-31T03:44:54.771Z,98216.31
2022-12-31T03:47:21.336Z,98218.56
2022-12-31T03:49:47.854Z,98215.00
2022-12-31T03:52:14.354Z,98221.50
2022-12-31T03:54:40.897Z,98210.50
2022-12-31T03:57:07.433Z,98222.91
2022-12-31T03:59:34.004Z,98215.59
2022-12-31T04:02:00.550Z,98209.88
2022-12-31T04:04:27.123Z,98217.94
2022-12-31T04:06:53.839Z,98213.44
2022-12-31T04:09:20.367Z,98219.84
2022-12-31T04:11:46.906Z,98223.94
2022-12-31T04:14:13.519Z,98220.53
2022-12-31T04:16:40.074Z,98218.50
2022-12-31T04:19:07.067Z,98223.47
2022-12-31T04:21:35.323Z,98232.91
2022-12-31T04:24:02.711Z,98225.09
2022-12-31T04:26:29.352Z,98222.66
2022-12-31T04:28:55.874Z,98222.66
2022-12-31T04:31:22.490Z,98224.03
2022-12-31T04:33:49.083Z,98221.72
2022-12-31T04:36:15.574Z,98222.75
2022-12-31T04:38:42.127Z,98228.44
2022-12-31T04:41:17.809Z,98229.81
2022-12-31T04:43:45.619Z,98225.03
2022-12-31T04:46:12.176Z,98234.06
2022-12-31T04:48:38.698Z,98242.38
2022-12-31T04:51:05.235Z,98243.03
2022-12-31T04:53:31.831Z,98243.19
2022-12-31T04:55:58.369Z,98243.81
2022-12-31T04:58:24.897Z,98247.78
2022-12-31T05:00:52.717Z,98246.75
2022-12-31T05:03:19.260Z,98252.75
2022-12-31T05:05:45.842Z,98250.91
2022-12-31T05:08:12.366Z,98247.03
2022-12-31T05:10:42.855Z,98251.72
2022-12-31T05:13:09.366Z,98250.53
2022-12-31T05:15:35.858Z,98245.56
2022-12-31T05:18:02.510Z,98247.03
2022-12-31T05:20:29.067Z,98254.53
2022-12-31T05:22:55.658Z,98252.94
2022-12-31T05:25:22.538Z,98247.91
2022-12-31T05:27:49.037Z,98255.38
2022-12-31T05:30:15.682Z,98260.88
2022-12-31T05:32:42.191Z,98263.56
2022-12-31T05:35:08.986Z,98267.13
2022-12-31T05:37:35.532Z,98266.09
2022-12-31T05:40:02.086Z,98263.97
2022-12-31T05:42:28.883Z,98270.22
2022-12-31T05:44:55.427Z,98271.25
2022-12-31T05:47:22.018Z,98272.16
2022-12-31T05:49:48.562Z,98270.31
2022-12-31T05:52:15.139Z,98281.44
2022-12-31T05:54:41.655Z,98279.81
2022-12-31T05:57:08.182Z,98279.31
2022-12-31T05:59:34.821Z,98283.53
2022-12-31T06:02:01.370Z,98285.56
2022-12-31T06:04:27.883Z,98275.66
2022-12-31T06:06:54.409Z,98272.09
2022-12-31T06:09:21.096Z,98280.41
2022-12-31T06:11:47.621Z,98285.41
2022-12-31T06:14:14.224Z,98279.72
2022-12-31T06:16:40.917Z,98286.78
2022-12-31T06:19:07.446Z,98289.63
2022-12-31T06:21:34.028Z,98287.63
2022-12-31T06:24:00.518Z,98286.72
2022-12-31T06:26:27.645Z,98283.47
2022-12-31T06:28:54.293Z,98293.31
2022-12-31T06:31:20.869Z,98293.44
2022-12-31T06:33:47.354Z,98302.94
2022-12-31T06:36:14.361Z,98309.34
2022-12-31T06:38:41.679Z,98308.75
2022-12-31T06:41:10.244Z,98307.44
2022-12-31T06:43:37.013Z,98318.75
2022-12-31T06:46:04.246Z,98331.63
2022-12-31T06:48:30.858Z,98323.63
2022-12-31T06:50:57.505Z,98314.09
2022-12-31T06:53:24.047Z,98320.63
2022-12-31T06:55:50.686Z,98322.16
2022-12-31T06:58:17.357Z,98317.59
2022-12-31T07:00:52.612Z,98314.28
2022-12-31T07:03:38.032Z,98312.44
2022-12-31T07:06:14.045Z,98321.63
2022-12-31T07:08:43.602Z,98320.44
2022-12-31T07:11:12.815Z,98323.63
2022-12-31T07:13:48.137Z,98322.53
2022-12-31T07:16:18.529Z,98324.56
2022-12-31T07:18:53.201Z,98324.47
2022-12-31T07:21:21.815Z,98330.44
2022-12-31T07:23:49.769Z,98334.94
2022-12-31T07:26:22.821Z,98333.28
2022-12-31T07:28:51.404Z,98341.81
2022-12-31T07:31:22.994Z,98339.63
2022-12-31T07:33:59.592Z,98337.06
2022-12-31T07:36:32.377Z,98335.03
2022-12-31T07:39:13.221Z,98331.91
2022-12-31T07:41:51.972Z,98333.09
2022-12-31T07:44:37.032Z,98335.88
2022-12-31T07:47:04.837Z,98334.09
2022-12-31T07:49:31.741Z,98342.94
2022-12-31T07:51:58.401Z,98335.03
2022-12-31T07:54:24.984Z,98341.28
2022-12-31T07:56:51.489Z,98343.13
2022-12-31T07:59:38.454Z,98353.84
2022-12-31T08:02:07.449Z,98358.81
2022-12-31T08:04:38.037Z,98363.59
2022-12-31T08:07:04.574Z,98366.72
2022-12-31T08:09:39.905Z,98377.00
2022-12-31T08:12:07.175Z,98382.63
2022-12-31T08:14:42.140Z,98381.03
2022-12-31T08:17:10.334Z,98391.13
2022-12-31T08:19:36.986Z,98389.91
2022-12-31T08:22:22.078Z,98375.66
2022-12-31T08:24:57.889Z,98389.16
2022-12-31T08:27:28.659Z,98390.91
2022-12-31T08:30:01.235Z,98386.09
2022-12-31T08:32:31.244Z,98377.97
2022-12-31T08:35:06.919Z,98384.72
2022-12-31T08:37:37.511Z,98381.25
2022-12-31T08:40:13.181Z,98387.56
2022-12-31T08:43:02.818Z,98391.63
2022-12-31T08:45:32.491Z,98403.34
2022-12-31T08:48:03.315Z,98398.97
2022-12-31T08:50:30.166Z,98396.31
2022-12-31T08:52:56.802Z,98400.84
2022-12-31T08:55:23.428Z,98414.19
2022-12-31T08:58:08.535Z,98416.50
2022-12-31T09:00:35.482Z,98428.72
2022-12-31T09:03:11.158Z,98431.97
2022-12-31T09:05:43.474Z,98428.41
2022-12-31T09:08:21.908Z,98436.19
2022-12-31T09:10:54.274Z,98432.09
2022-12-31T09:13:40.984Z,98428.91
2022-12-31T09:16:07.479Z,98435.47
2022-12-31T09:18:34.999Z,98431.97
2022-12-31T09:21:01.610Z,98427.19
2022-12-31T09:23:28.162Z,98437.63
2022-12-31T09:26:07.576Z,98434.78
2022-12-31T09:28:40.628Z,98424.47
2022-12-31T09:31:14.155Z,98437.31
2022-12-31T09:33:45.254Z,98427.94
2022-12-31T09:36:14.640Z,98431.19
2022-12-31T09:38:45.103Z,98426.63
2022-12-31T09:41:16.383Z,98433.91
2022-12-31T09:44:00.888Z,98423.59
2022-12-31T09:46:46.534Z,98442.00
2022-12-31T09:49:31.719Z,98432.25
2022-12-31T09:52:04.014Z,98428.13
2022-12-31T09:54:39.556Z,98434.91
2022-12-31T09:57:17.159Z,98431.63
2022-12-31T09:59:53.179Z,98427.53
2022-12-31T10:02:29.123Z,98416.66
2022-12-31T10:05:11.992Z,98414.69
2022-12-31T10:07:50.428Z,98418.81
2022-12-31T10:10:18.955Z,98420.06
2022-12-31T10:12:59.138Z,98421.22
2022-12-31T10:15:33.014Z,98419.81
2022-12-31T10:18:17.845Z,98421.25
2022-12-31T10:20:45.554Z,98414.03
2022-12-31T10:23:24.506Z,98413.00
2022-12-31T10:26:02.980Z,98423.06
2022-12-31T10:28:30.972Z,98424.50
2022-12-31T10:31:03.093Z,98419.25
2022-12-31T10:33:42.033Z,98432.75
2022-12-31T10:36:09.532Z,98421.66
2022-12-31T10:38:45.811Z,98420.03
2022-12-31T10:41:31.207Z,98428.69
2022-12-31T10:44:06.762Z,98427.50
2022-12-31T10:46:51.879Z,98406.06
2022-12-31T10:49:18.322Z,98400.69
2022-12-31T10:51:53.965Z,98403.78
2022-12-31T10:54:26.665Z,98396.16
2022-12-31T10:57:07.350Z,98416.00
2022-12-31T10:59:54.202Z,98415.78
2022-12-31T11:02:26.933Z,98404.22
2022-12-31T11:05:20.793Z,98399.28
2022-12-31T11:07:47.255Z,98402.78
2022-12-31T11:10:36.910Z,98397.84
2022-12-31T11:13:15.369Z,98398.88
2022-12-31T11:15:51.584Z,98397.41
2022-12-31T11:18:23.746Z,98384.63
2022-12-31T11:20:56.460Z,98384.44
2022-12-31T11:23:41.679Z,98379.91
2022-12-31T11:26:11.057Z,98384.63
2022-12-31T11:28:37.611Z,98387.75
2022-12-31T11:31:10.404Z,98390.41
2022-12-31T11:33:50.620Z,98380.09
2022-12-31T11:36:25.666Z,98374.75
2022-12-31T11:39:11.164Z,98376.38
2022-12-31T11:41:46.767Z,98376.41
2022-12-31T11:44:18.416Z,98371.03
2022-12-31T11:47:03.485Z,98371.88
2022-12-31T11:49:38.903Z,98373.72
2022-12-31T11:52:25.659Z,98368.19
2022-12-31T11:54:54.267Z,98361.94
2022-12-31T11:57:29.982Z,98349.78
2022-12-31T12:00:00.892Z,98340.31
2022-12-31T12:02:37.231Z,98347.06
2022-12-31T12:05:10.618Z,98353.72
2022-12-31T12:07:38.043Z,98350.81
2022-12-31T12:10:07.445Z,98345.66
2022-12-31T12:12:40.688Z,98349.59
2022-12-31T12:15:07.992Z,98353.66
2022-12-31T12:17:34.514Z,98342.75
2022-12-31T12:20:02.380Z,98343.53
2022-12-31T12:22:29.880Z,98346.19
2022-12-31T12:24:58.130Z,98350.50
2022-12-31T12:27:27.380Z,98348.84
2022-12-31T12:29:53.931Z,98342.50
2022-12-31T12:32:21.457Z,98336.34
2022-12-31T12:34:50.153Z,98336.53
2022-12-31T12:37:19.874Z,98323.16
2022-12-31T12:39:46.835Z,98321.72
2022-12-31T12:42:14.148Z,98326.84
2022-12-31T12:44:42.020Z,98334.66
2022-12-31T12:47:11.812Z,98330.59
2022-12-31T12:49:39.112Z,98325.25
2022-12-31T12:52:05.580Z,98335.53
2022-12-31T12:54:44.536Z,98321.34
2022-12-31T12:57:16.272Z,98315.75
2022-12-31T13:00:01.639Z,98318.63
2022-12-31T13:02:34.203Z,98313.06
2022-12-31T13:05:06.814Z,98317.41
2022-12-31T13:07:38.365Z,98317.41
2022-12-31T13:10:27.441Z,98304.03
2022-12-31T13:15:52.792Z,98307.75
2022-12-31T13:18:31.592Z,98313.34
2022-12-31T13:21:19.899Z,98315.78
2022-12-31T13:23:48.786Z,98311.91
2022-12-31T13:26:23.455Z,98307.56
2022-12-31T13:28:50.533Z,98308.38
2022-12-31T13:31:18.320Z,98294.31
2022-12-31T13:33:47.988Z,98303.44
2022-12-31T13:36:15.654Z,98299.09
2022-12-31T13:38:42.561Z,98303.19
2022-12-31T13:41:09.679Z,98296.84
2022-12-31T13:43:43.382Z,98283.22
2022-12-31T13:46:18.736Z,98292.28
2022-12-31T13:48:48.686Z,98293.50
2022-12-31T13:51:18.344Z,98291.47
2022-12-31T13:53:48.523Z,98294.78
2022-12-31T13:56:16.890Z,98286.72
2022-12-31T13:58:48.683Z,98288.16
2022-12-31T14:01:17.094Z,98285.06
2022-12-31T14:03:43.634Z,98292.34
2022-12-31T14:06:12.366Z,98293.56
2022-12-31T14:08:39.685Z,98295.44
2022-12-31T14:11:06.201Z,98290.28
2022-12-31T14:13:51.623Z,98289.66
2022-12-31T14:16:47.306Z,98289.88
2022-12-31T14:19:19.025Z,98291.72
2022-12-31T14:21:57.692Z,98288.84
2022-12-31T14:24:53.632Z,98284.94
2022-12-31T14:27:24.549Z,98286.13
2022-12-31T14:29:57.569Z,98293.31
2022-12-31T14:32:43.062Z,98291.72
2022-12-31T14:35:16.582Z,98299.56
2022-12-31T14:37:48.816Z,98306.28
2022-12-31T14:40:37.488Z,98302.78
2022-12-31T14:43:13.097Z,98303.59
2022-12-31T14:45:47.075Z,98298.88
2022-12-31T14:48:32.269Z,98307.09
2022-12-31T14:50:59.297Z,98303.56
2022-12-31T14:53:26.248Z,98304.59
2022-12-31T14:56:02.572Z,98310.78
2022-12-31T14:58:39.594Z,98316.53
2022-12-31T15:01:14.963Z,98314.47
2022-12-31T15:03:45.714Z,98313.81
2022-12-31T15:06:25.809Z,98310.88
2022-12-31T15:09:07.485Z,98311.28
2022-12-31T15:11:39.917Z,98308.31
2022-12-31T15:14:25.059Z,98316.84
2022-12-31T15:17:00.837Z,98318.13
2022-12-31T15:19:27.294Z,98317.84
2022-12-31T15:21:55.612Z,98319.22
2022-12-31T15:24:25.695Z,98316.66
2022-12-31T15:26:53.173Z,98317.44
2022-12-31T15:29:23.838Z,98329.44
2022-12-31T15:31:50.343Z,98316.66
2022-12-31T15:34:29.637Z,98325.59
2022-12-31T15:36:57.923Z,98328.84
2022-12-31T15:39:40.918Z,98325.66
2022-12-31T15:42:37.912Z,98322.84
2022-12-31T15:45:06.333Z,98327.91
2022-12-31T15:47:37.206Z,98330.34
2022-12-31T15:50:08.139Z,98331.72
2022-12-31T15:52:54.915Z,98335.75
2022-12-31T15:55:37.790Z,98336.59
2022-12-31T15:58:05.554Z,98339.75
2022-12-31T16:00:38.670Z,98343.28
2022-12-31T16:03:10.597Z,98351.81
2022-12-31T16:05:37.138Z,98354.19
2022-12-31T16:08:03.675Z,98346.97
2022-12-31T16:10:30.965Z,98352.25
2022-12-31T16:12:57.646Z,98347.09
2022-12-31T16:15:25.981Z,98355.03
2022-12-31T16:17:59.465Z,98349.91
2022-12-31T16:20:26.957Z,98363.69
2022-12-31T16:22:56.268Z,98369.81
2022-12-31T16:25:31.951Z,98368.56
2022-12-31T16:27:59.188Z,98368.63
2022-12-31T16:30:32.930Z,98365.31
2022-12-31T16:33:00.997Z,98360.72
2022-12-31T16:35:35.001Z,98366.34
2022-12-31T16:38:11.274Z,98359.09
2022-12-31T16:40:38.094Z,98359.25
2022-12-31T16:43:04.686Z,98353.78
2022-12-31T16:45:35.366Z,98356.84
2022-12-31T16:48:14.699Z,98355.19
2022-12-31T16:51:03.185Z,98356.03
2022-12-31T16:53:30.597Z,98351.88
2022-12-31T16:56:03.862Z,98357.72
2022-12-31T16:58:31.112Z,98358.75
2022-12-31T17:01:05.269Z,98354.19
2022-12-31T17:03:31.885Z,98351.56
2022-12-31T17:06:01.556Z,98353.19
2022-12-31T17:08:29.501Z,98349.38
2022-12-31T17:10:56.675Z,98351.28
2022-12-31T17:13:28.419Z,98353.00
2022-12-31T17:15:55.661Z,98353.50
2022-12-31T17:18:23.047Z,98356.47
2022-12-31T17:20:50.748Z,98362.22
2022-12-31T17:23:19.983Z,98367.28
2022-12-31T17:25:46.500Z,98368.91
2022-12-31T17:28:22.909Z,98367.09
2022-12-31T17:30:49.769Z,98368.47
2022-12-31T17:33:22.511Z,98367.88
2022-12-31T17:35:49.868Z,98371.41
2022-12-31T17:38:22.915Z,98372.06
2022-12-31T17:40:53.621Z,98368.13
2022-12-31T17:43:20.738Z,98366.50
2022-12-31T17:45:47.494Z,98373.69
2022-12-31T17:48:14.581Z,98375.25
2022-12-31T17:50:51.068Z,98379.94
2022-12-31T17:53:17.773Z,98379.66
2022-12-31T17:55:47.739Z,98385.19
2022-12-31T17:58:18.284Z,98386.72
2022-12-31T18:00:44.846Z,98392.13
2022-12-31T18:03:11.612Z,98389.13
2022-12-31T18:05:38.141Z,98393.81
2022-12-31T18:08:04.888Z,98393.53
2022-12-31T18:10:32.320Z,98397.31
2022-12-31T18:12:58.925Z,98390.88
2022-12-31T18:15:25.490Z,98387.56
2022-12-31T18:17:52.034Z,98384.44
2022-12-31T18:20:18.963Z,98384.53
2022-12-31T18:22:45.453Z,98378.28
2022-12-31T18:25:19.083Z,98386.72
2022-12-31T18:27:45.716Z,98387.34
2022-12-31T18:30:12.427Z,98399.28
2022-12-31T18:32:39.166Z,98393.78
2022-12-31T18:35:06.534Z,98392.41
2022-12-31T18:37:33.037Z,98406.59
2022-12-31T18:39:59.567Z,98402.63
2022-12-31T18:42:26.307Z,98404.66
2022-12-31T18:44:52.795Z,98406.56
2022-12-31T18:47:19.964Z,98408.28
2022-12-31T18:49:48.689Z,98408.41
2022-12-31T18:52:16.683Z,98405.38
2022-12-31T18:54:43.260Z,98408.16
2022-12-31T18:57:12.798Z,98409.22
2022-12-31T18:59:39.325Z,98406.63
2022-12-31T19:02:06.126Z,98408.09
2022-12-31T19:04:32.728Z,98413.88
2022-12-31T19:06:59.271Z,98410.50
2022-12-31T19:12:12.958Z,98417.72
2022-12-31T19:14:39.493Z,98416.06
2022-12-31T19:19:31.355Z,98417.91
2022-12-31T19:21:57.907Z,98424.41
2022-12-31T19:24:26.595Z,98427.63
2022-12-31T19:26:53.524Z,98431.09
2022-12-31T19:29:21.766Z,98429.69
2022-12-31T19:31:48.493Z,98432.66
2022-12-31T19:34:15.097Z,98433.41
2022-12-31T19:36:44.066Z,98427.63
2022-12-31T19:39:13.627Z,98427.78
2022-12-31T19:41:41.696Z,98437.66
2022-12-31T19:44:12.242Z,98440.03
2022-12-31T19:46:38.763Z,98442.03
2022-12-31T19:49:05.423Z,98443.06
2022-12-31T19:51:31.960Z,98440.47
2022-12-31T19:53:58.469Z,98448.63
2022-12-31T19:56:25.011Z,98444.31
2022-12-31T19:58:51.547Z,98445.53
2022-12-31T20:01:21.712Z,98440.00
2022-12-31T20:03:48.462Z,98446.13
2022-12-31T20:06:15.105Z,98444.31
2022-12-31T20:08:44.695Z,98442.38
2022-12-31T20:11:12.878Z,98440.28
2022-12-31T20:13:39.927Z,98447.47
2022-12-31T20:16:07.490Z,98441.25
2022-12-31T20:18:33.987Z,98449.25
2022-12-31T20:21:00.477Z,98449.25
2022-12-31T20:23:27.071Z,98443.34
2022-12-31T20:25:59.866Z,98450.31
2022-12-31T20:28:26.427Z,98449.13
2022-12-31T20:30:53.019Z,98452.91
2022-12-31T20:33:19.898Z,98451.47
2022-12-31T20:35:46.440Z,98443.31
2022-12-31T20:38:12.979Z,98453.78
2022-12-31T20:40:46.163Z,98452.66
2022-12-31T20:43:13.313Z,98450.66
2022-12-31T20:45:40.935Z,98441.66
2022-12-31T20:48:07.522Z,98442.53
2022-12-31T20:50:34.196Z,98436.53
2022-12-31T20:53:00.696Z,98451.13
2022-12-31T20:55:27.439Z,98444.31
2022-12-31T20:57:54.008Z,98446.59
2022-12-31T21:00:20.540Z,98447.94
2022-12-31T21:02:55.488Z,98448.91
2022-12-31T21:05:27.286Z,98447.53
2022-12-31T21:07:54.010Z,98444.97
2022-12-31T21:10:20.551Z,98451.69
2022-12-31T21:12:53.249Z,98450.44
2022-12-31T21:15:20.533Z,98455.31
2022-12-31T21:17:47.025Z,98450.69
2022-12-31T21:20:13.557Z,98453.28
2022-12-31T21:22:40.163Z,98457.69
2022-12-31T21:25:06.879Z,98453.63
2022-12-31T21:27:33.484Z,98455.38
2022-12-31T21:32:46.660Z,98451.97
2022-12-31T21:38:00.743Z,98472.97
2022-12-31T21:40:27.757Z,98464.88
2022-12-31T21:42:54.332Z,98462.75
2022-12-31T21:45:20.982Z,98463.78
2022-12-31T21:48:06.407Z,98466.69
2022-12-31T21:50:33.181Z,98473.31
2022-12-31T21:52:59.745Z,98467.41
2022-12-31T21:55:45.039Z,98468.91
2022-12-31T21:58:25.688Z,98479.19
2022-12-31T22:01:11.756Z,98476.81
2022-12-31T22:03:38.643Z,98476.81
2022-12-31T22:06:10.187Z,98483.13
2022-12-31T22:08:36.994Z,98494.78
2022-12-31T22:11:03.530Z,98497.97
2022-12-31T22:13:30.023Z,98492.56
2022-12-31T22:16:03.868Z,98495.22
2022-12-31T22:18:32.301Z,98496.56
2022-12-31T22:21:05.696Z,98496.16
2022-12-31T22:23:32.772Z,98496.47
2022-12-31T22:25:59.352Z,98497.31
2022-12-31T22:28:41.377Z,98502.19
2022-12-31T22:31:09.180Z,98500.50
2022-12-31T22:33:35.749Z,98502.69
2022-12-31T22:36:03.418Z,98501.31
2022-12-31T22:38:30.057Z,98496.28
2022-12-31T22:41:06.742Z,98500.41
2022-12-31T22:43:34.130Z,98507.88
2022-12-31T22:46:05.705Z,98513.56
2022-12-31T22:48:32.284Z,98524.91
2022-12-31T22:50:58.788Z,98518.28
2022-12-31T22:53:25.297Z,98526.13
2022-12-31T22:55:53.439Z,98535.94
2022-12-31T22:58:19.936Z,98524.66
2022-12-31T23:00:47.001Z,98528.84
2022-12-31T23:03:13.982Z,98520.53
2022-12-31T23:05:40.727Z,98523.78
2022-12-31T23:08:18.797Z,98522.03
2022-12-31T23:11:03.800Z,98531.09
2022-12-31T23:13:50.827Z,98528.34
2022-12-31T23:16:36.734Z,98526.16
2022-12-31T23:19:22.010Z,98530.53
2022-12-31T23:22:07.353Z,98526.59
2022-12-31T23:24:33.891Z,98538.41
2022-12-31T23:27:00.589Z,98538.56
2022-12-31T23:29:27.097Z,98532.81
2022-12-31T23:31:53.670Z,98531.50
2022-12-31T23:34:20.239Z,98535.69
2022-12-31T23:36:46.759Z,98534.88
2022-12-31T23:39:13.596Z,98538.19
2022-12-31T23:41:40.264Z,98537.69
2022-12-31T23:44:06.885Z,98537.69
2022-12-31T23:46:33.515Z,98544.16
2022-12-31T23:49:00.134Z,98541.38
2022-12-31T23:51:26.700Z,98539.38
2022-12-31T23:53:53.194Z,98538.84
2022-12-31T23:56:23.714Z,98544.34
2022-12-31T23:58:57.080Z,98541.16
